sensor_id;sensor_type;location;lat;lon;timestamp;P1;durP1;ratioP1;P2;durP2;ratioP2
76786;SDS011;65739;51.482;5.702;2023-06-26T00:01:57;15.68;;;11.35;;
76786;SDS011;65739;51.482;5.702;2023-06-26T00:04:23;14.90;;;10.98;;
76786;SDS011;65739;51.482;5.702;2023-06-26T00:06:48;12.88;;;10.85;;
76786;SDS011;65739;51.482;5.702;2023-06-26T00:09:14;15.65;;;11.23;;
76786;SDS011;65739;51.482;5.702;2023-06-26T00:11:40;15.23;;;10.63;;
76786;SDS011;65739;51.482;5.702;2023-06-26T00:14:05;14.70;;;11.00;;
76786;SDS011;65739;51.482;5.702;2023-06-26T00:16:31;12.23;;;10.52;;
76786;SDS011;65739;51.482;5.702;2023-06-26T00:18:57;13.48;;;10.73;;
76786;SDS011;65739;51.482;5.702;2023-06-26T00:21:24;13.25;;;10.20;;
76786;SDS011;65739;51.482;5.702;2023-06-26T00:23:50;12.57;;;10.75;;
76786;SDS011;65739;51.482;5.702;2023-06-26T00:26:16;13.05;;;10.07;;
76786;SDS011;65739;51.482;5.702;2023-06-26T00:28:41;11.02;;;8.80;;
76786;SDS011;65739;51.482;5.702;2023-06-26T00:31:07;12.98;;;9.30;;
76786;SDS011;65739;51.482;5.702;2023-06-26T00:33:32;11.98;;;9.05;;
76786;SDS011;65739;51.482;5.702;2023-06-26T00:35:58;8.77;;;7.88;;
76786;SDS011;65739;51.482;5.702;2023-06-26T00:38:24;9.77;;;7.97;;
76786;SDS011;65739;51.482;5.702;2023-06-26T00:40:50;9.77;;;7.65;;
76786;SDS011;65739;51.482;5.702;2023-06-26T00:43:15;9.27;;;7.90;;
76786;SDS011;65739;51.482;5.702;2023-06-26T00:45:41;8.40;;;7.57;;
76786;SDS011;65739;51.482;5.702;2023-06-26T00:48:06;8.93;;;7.38;;
76786;SDS011;65739;51.482;5.702;2023-06-26T00:50:33;9.82;;;7.57;;
76786;SDS011;65739;51.482;5.702;2023-06-26T00:52:59;8.25;;;7.45;;
76786;SDS011;65739;51.482;5.702;2023-06-26T00:55:26;8.05;;;7.22;;
76786;SDS011;65739;51.482;5.702;2023-06-26T00:57:52;10.45;;;7.10;;
76786;SDS011;65739;51.482;5.702;2023-06-26T01:00:19;9.45;;;7.15;;
76786;SDS011;65739;51.482;5.702;2023-06-26T01:02:45;7.88;;;7.15;;
76786;SDS011;65739;51.482;5.702;2023-06-26T01:05:11;9.93;;;6.85;;
76786;SDS011;65739;51.482;5.702;2023-06-26T01:07:46;7.30;;;6.60;;
76786;SDS011;65739;51.482;5.702;2023-06-26T01:10:13;9.05;;;7.38;;
76786;SDS011;65739;51.482;5.702;2023-06-26T01:12:38;7.78;;;6.97;;
76786;SDS011;65739;51.482;5.702;2023-06-26T01:15:04;10.25;;;7.82;;
76786;SDS011;65739;51.482;5.702;2023-06-26T01:17:30;8.05;;;7.25;;
76786;SDS011;65739;51.482;5.702;2023-06-26T01:19:57;10.23;;;7.28;;
76786;SDS011;65739;51.482;5.702;2023-06-26T01:22:27;9.07;;;7.45;;
76786;SDS011;65739;51.482;5.702;2023-06-26T01:28:03;7.45;;;6.72;;
76786;SDS011;65739;51.482;5.702;2023-06-26T01:30:31;7.85;;;6.53;;
76786;SDS011;65739;51.482;5.702;2023-06-26T01:32:58;8.10;;;5.82;;
76786;SDS011;65739;51.482;5.702;2023-06-26T01:35:25;6.95;;;5.43;;
76786;SDS011;65739;51.482;5.702;2023-06-26T01:37:51;5.97;;;4.95;;
76786;SDS011;65739;51.482;5.702;2023-06-26T01:40:17;8.20;;;5.03;;
76786;SDS011;65739;51.482;5.702;2023-06-26T01:42:42;6.63;;;4.85;;
76786;SDS011;65739;51.482;5.702;2023-06-26T01:45:15;6.95;;;4.90;;
76786;SDS011;65739;51.482;5.702;2023-06-26T01:47:49;6.43;;;4.95;;
76786;SDS011;65739;51.482;5.702;2023-06-26T01:50:18;7.22;;;4.60;;
76786;SDS011;65739;51.482;5.702;2023-06-26T01:53:02;6.22;;;4.35;;
76786;SDS011;65739;51.482;5.702;2023-06-26T01:55:41;6.55;;;5.50;;
76786;SDS011;65739;51.482;5.702;2023-06-26T01:58:16;5.85;;;5.10;;
76786;SDS011;65739;51.482;5.702;2023-06-26T02:00:45;8.80;;;5.18;;
76786;SDS011;65739;51.482;5.702;2023-06-26T02:03:11;9.27;;;5.15;;
76786;SDS011;65739;51.482;5.702;2023-06-26T02:05:37;7.25;;;5.38;;
76786;SDS011;65739;51.482;5.702;2023-06-26T02:08:02;6.13;;;5.07;;
76786;SDS011;65739;51.482;5.702;2023-06-26T02:10:28;6.47;;;5.10;;
76786;SDS011;65739;51.482;5.702;2023-06-26T02:12:54;6.47;;;4.93;;
76786;SDS011;65739;51.482;5.702;2023-06-26T02:15:20;9.88;;;5.30;;
76786;SDS011;65739;51.482;5.702;2023-06-26T02:17:46;9.85;;;5.50;;
76786;SDS011;65739;51.482;5.702;2023-06-26T02:20:13;7.28;;;4.82;;
76786;SDS011;65739;51.482;5.702;2023-06-26T02:22:42;6.13;;;4.88;;
76786;SDS011;65739;51.482;5.702;2023-06-26T02:25:08;5.78;;;5.18;;
76786;SDS011;65739;51.482;5.702;2023-06-26T02:27:34;6.82;;;4.95;;
76786;SDS011;65739;51.482;5.702;2023-06-26T02:29:59;6.47;;;4.50;;
76786;SDS011;65739;51.482;5.702;2023-06-26T02:32:25;6.60;;;5.32;;
76786;SDS011;65739;51.482;5.702;2023-06-26T02:34:50;8.48;;;4.70;;
76786;SDS011;65739;51.482;5.702;2023-06-26T02:37:19;8.95;;;5.10;;
76786;SDS011;65739;51.482;5.702;2023-06-26T02:39:45;7.18;;;4.65;;
76786;SDS011;65739;51.482;5.702;2023-06-26T02:42:10;6.82;;;5.07;;
76786;SDS011;65739;51.482;5.702;2023-06-26T02:44:36;5.93;;;4.80;;
76786;SDS011;65739;51.482;5.702;2023-06-26T02:47:02;6.30;;;5.03;;
76786;SDS011;65739;51.482;5.702;2023-06-26T02:49:27;5.85;;;4.50;;
76786;SDS011;65739;51.482;5.702;2023-06-26T02:51:53;7.50;;;4.63;;
76786;SDS011;65739;51.482;5.702;2023-06-26T02:54:18;6.60;;;4.65;;
76786;SDS011;65739;51.482;5.702;2023-06-26T02:56:44;7.75;;;4.80;;
76786;SDS011;65739;51.482;5.702;2023-06-26T02:59:10;4.75;;;3.80;;
76786;SDS011;65739;51.482;5.702;2023-06-26T03:01:35;9.80;;;4.05;;
76786;SDS011;65739;51.482;5.702;2023-06-26T03:04:01;10.57;;;4.22;;
76786;SDS011;65739;51.482;5.702;2023-06-26T03:06:27;9.38;;;4.10;;
76786;SDS011;65739;51.482;5.702;2023-06-26T03:08:52;7.65;;;4.18;;
76786;SDS011;65739;51.482;5.702;2023-06-26T03:11:18;11.15;;;4.43;;
76786;SDS011;65739;51.482;5.702;2023-06-26T03:13:44;8.85;;;3.95;;
76786;SDS011;65739;51.482;5.702;2023-06-26T03:16:10;8.07;;;3.55;;
76786;SDS011;65739;51.482;5.702;2023-06-26T03:18:35;13.13;;;4.15;;
76786;SDS011;65739;51.482;5.702;2023-06-26T03:21:01;6.25;;;4.10;;
76786;SDS011;65739;51.482;5.702;2023-06-26T03:23:26;7.28;;;4.20;;
76786;SDS011;65739;51.482;5.702;2023-06-26T03:25:52;7.13;;;3.78;;
76786;SDS011;65739;51.482;5.702;2023-06-26T03:28:18;6.60;;;4.07;;
76786;SDS011;65739;51.482;5.702;2023-06-26T03:30:43;8.20;;;4.00;;
76786;SDS011;65739;51.482;5.702;2023-06-26T03:33:09;8.63;;;4.00;;
76786;SDS011;65739;51.482;5.702;2023-06-26T03:35:35;11.07;;;4.50;;
76786;SDS011;65739;51.482;5.702;2023-06-26T03:38:01;8.77;;;4.30;;
76786;SDS011;65739;51.482;5.702;2023-06-26T03:40:27;8.18;;;4.13;;
76786;SDS011;65739;51.482;5.702;2023-06-26T03:42:52;10.30;;;4.32;;
76786;SDS011;65739;51.482;5.702;2023-06-26T03:45:18;8.85;;;3.78;;
76786;SDS011;65739;51.482;5.702;2023-06-26T03:47:44;13.30;;;4.07;;
76786;SDS011;65739;51.482;5.702;2023-06-26T03:50:12;15.05;;;4.30;;
76786;SDS011;65739;51.482;5.702;2023-06-26T03:52:37;8.05;;;4.22;;
76786;SDS011;65739;51.482;5.702;2023-06-26T03:55:03;10.63;;;4.20;;
76786;SDS011;65739;51.482;5.702;2023-06-26T03:57:29;6.88;;;4.22;;
76786;SDS011;65739;51.482;5.702;2023-06-26T03:59:54;12.63;;;4.38;;
76786;SDS011;65739;51.482;5.702;2023-06-26T04:02:20;11.27;;;4.35;;
76786;SDS011;65739;51.482;5.702;2023-06-26T04:04:45;10.70;;;5.07;;
76786;SDS011;65739;51.482;5.702;2023-06-26T04:07:11;11.55;;;4.72;;
76786;SDS011;65739;51.482;5.702;2023-06-26T04:09:36;12.80;;;4.40;;
76786;SDS011;65739;51.482;5.702;2023-06-26T04:12:03;10.50;;;4.70;;
76786;SDS011;65739;51.482;5.702;2023-06-26T04:14:28;9.52;;;5.18;;
76786;SDS011;65739;51.482;5.702;2023-06-26T04:16:54;14.18;;;5.10;;
76786;SDS011;65739;51.482;5.702;2023-06-26T04:19:20;14.13;;;4.65;;
76786;SDS011;65739;51.482;5.702;2023-06-26T04:21:45;14.52;;;4.75;;
76786;SDS011;65739;51.482;5.702;2023-06-26T04:24:11;13.60;;;4.20;;
76786;SDS011;65739;51.482;5.702;2023-06-26T04:26:37;12.10;;;4.72;;
76786;SDS011;65739;51.482;5.702;2023-06-26T04:29:05;9.80;;;4.55;;
76786;SDS011;65739;51.482;5.702;2023-06-26T04:31:31;14.70;;;4.43;;
76786;SDS011;65739;51.482;5.702;2023-06-26T04:33:57;13.70;;;4.85;;
76786;SDS011;65739;51.482;5.702;2023-06-26T04:36:24;10.38;;;4.55;;
76786;SDS011;65739;51.482;5.702;2023-06-26T04:38:53;11.07;;;5.20;;
76786;SDS011;65739;51.482;5.702;2023-06-26T04:41:21;13.27;;;5.00;;
76786;SDS011;65739;51.482;5.702;2023-06-26T04:43:47;10.75;;;4.70;;
76786;SDS011;65739;51.482;5.702;2023-06-26T04:46:12;11.63;;;4.82;;
76786;SDS011;65739;51.482;5.702;2023-06-26T04:48:38;15.60;;;4.97;;
76786;SDS011;65739;51.482;5.702;2023-06-26T04:51:04;10.63;;;4.65;;
76786;SDS011;65739;51.482;5.702;2023-06-26T04:53:29;19.42;;;4.80;;
76786;SDS011;65739;51.482;5.702;2023-06-26T04:55:55;11.20;;;4.72;;
76786;SDS011;65739;51.482;5.702;2023-06-26T04:58:21;12.55;;;5.13;;
76786;SDS011;65739;51.482;5.702;2023-06-26T05:00:46;12.60;;;4.60;;
76786;SDS011;65739;51.482;5.702;2023-06-26T05:03:56;12.13;;;4.72;;
76786;SDS011;65739;51.482;5.702;2023-06-26T05:06:22;10.38;;;5.00;;
76786;SDS011;65739;51.482;5.702;2023-06-26T05:08:47;11.02;;;4.78;;
76786;SDS011;65739;51.482;5.702;2023-06-26T05:11:13;11.20;;;4.43;;
76786;SDS011;65739;51.482;5.702;2023-06-26T05:13:38;14.02;;;4.82;;
76786;SDS011;65739;51.482;5.702;2023-06-26T05:16:05;18.48;;;5.32;;
76786;SDS011;65739;51.482;5.702;2023-06-26T05:18:31;13.77;;;4.68;;
76786;SDS011;65739;51.482;5.702;2023-06-26T05:20:56;16.17;;;4.20;;
76786;SDS011;65739;51.482;5.702;2023-06-26T05:23:22;16.45;;;5.05;;
76786;SDS011;65739;51.482;5.702;2023-06-26T05:25:51;15.52;;;5.00;;
76786;SDS011;65739;51.482;5.702;2023-06-26T05:28:17;12.30;;;4.03;;
76786;SDS011;65739;51.482;5.702;2023-06-26T05:30:43;16.55;;;4.85;;
76786;SDS011;65739;51.482;5.702;2023-06-26T05:33:10;16.08;;;4.40;;
76786;SDS011;65739;51.482;5.702;2023-06-26T05:35:36;14.13;;;4.43;;
76786;SDS011;65739;51.482;5.702;2023-06-26T05:38:02;11.38;;;4.32;;
76786;SDS011;65739;51.482;5.702;2023-06-26T05:40:28;15.48;;;4.93;;
76786;SDS011;65739;51.482;5.702;2023-06-26T05:42:54;12.95;;;4.30;;
76786;SDS011;65739;51.482;5.702;2023-06-26T05:45:20;12.57;;;4.43;;
76786;SDS011;65739;51.482;5.702;2023-06-26T05:47:45;13.13;;;3.92;;
76786;SDS011;65739;51.482;5.702;2023-06-26T05:50:11;14.27;;;3.90;;
76786;SDS011;65739;51.482;5.702;2023-06-26T05:52:37;15.10;;;4.40;;
76786;SDS011;65739;51.482;5.702;2023-06-26T05:55:04;12.68;;;4.30;;
76786;SDS011;65739;51.482;5.702;2023-06-26T05:57:30;14.98;;;4.78;;
76786;SDS011;65739;51.482;5.702;2023-06-26T05:59:56;11.38;;;4.25;;
76786;SDS011;65739;51.482;5.702;2023-06-26T06:02:22;10.98;;;3.88;;
76786;SDS011;65739;51.482;5.702;2023-06-26T06:04:48;15.73;;;4.00;;
76786;SDS011;65739;51.482;5.702;2023-06-26T06:07:13;15.18;;;4.00;;
76786;SDS011;65739;51.482;5.702;2023-06-26T06:09:39;12.40;;;3.55;;
76786;SDS011;65739;51.482;5.702;2023-06-26T06:12:05;15.10;;;4.07;;
76786;SDS011;65739;51.482;5.702;2023-06-26T06:14:32;11.77;;;3.90;;
76786;SDS011;65739;51.482;5.702;2023-06-26T06:42:17;10.82;;;3.55;;
76786;SDS011;65739;51.482;5.702;2023-06-26T06:45:03;10.15;;;3.35;;
76786;SDS011;65739;51.482;5.702;2023-06-26T06:47:57;11.43;;;3.38;;
76786;SDS011;65739;51.482;5.702;2023-06-26T06:50:30;12.55;;;3.42;;
76786;SDS011;65739;51.482;5.702;2023-06-26T06:52:55;15.57;;;3.47;;
76786;SDS011;65739;51.482;5.702;2023-06-26T06:55:41;11.43;;;3.20;;
76786;SDS011;65739;51.482;5.702;2023-06-26T06:58:26;16.30;;;4.00;;
76786;SDS011;65739;51.482;5.702;2023-06-26T07:01:24;15.65;;;3.70;;
76786;SDS011;65739;51.482;5.702;2023-06-26T07:10:48;10.95;;;3.00;;
76786;SDS011;65739;51.482;5.702;2023-06-26T07:13:34;15.45;;;3.42;;
76786;SDS011;65739;51.482;5.702;2023-06-26T07:16:04;8.80;;;3.05;;
76786;SDS011;65739;51.482;5.702;2023-06-26T09:01:56;3.60;;;1.30;;
76786;SDS011;65739;51.482;5.702;2023-06-26T09:04:55;3.65;;;1.23;;
76786;SDS011;65739;51.482;5.702;2023-06-26T09:18:11;6.80;;;1.10;;
76786;SDS011;65739;51.482;5.702;2023-06-26T09:27:58;4.32;;;1.13;;
76786;SDS011;65739;51.482;5.702;2023-06-26T10:03:31;6.00;;;1.00;;
76786;SDS011;65739;51.482;5.702;2023-06-26T10:09:53;2.50;;;0.80;;
76786;SDS011;65739;51.482;5.702;2023-06-26T10:37:52;3.33;;;0.90;;
76786;SDS011;65739;51.482;5.702;2023-06-26T10:40:47;3.65;;;0.80;;
76786;SDS011;65739;51.482;5.702;2023-06-26T10:43:18;2.67;;;0.80;;
76786;SDS011;65739;51.482;5.702;2023-06-26T10:46:09;5.55;;;0.88;;
76786;SDS011;65739;51.482;5.702;2023-06-26T10:51:37;1.95;;;0.90;;
76786;SDS011;65739;51.482;5.702;2023-06-26T11:01:25;1.42;;;0.80;;
76786;SDS011;65739;51.482;5.702;2023-06-26T11:12:35;2.67;;;0.88;;
76786;SDS011;65739;51.482;5.702;2023-06-26T11:18:16;3.85;;;0.93;;
76786;SDS011;65739;51.482;5.702;2023-06-26T11:20:54;4.38;;;0.80;;
76786;SDS011;65739;51.482;5.702;2023-06-26T11:23:48;1.73;;;0.90;;
76786;SDS011;65739;51.482;5.702;2023-06-26T11:26:23;2.95;;;0.90;;
76786;SDS011;65739;51.482;5.702;2023-06-26T11:28:50;6.78;;;1.00;;
76786;SDS011;65739;51.482;5.702;2023-06-26T11:31:30;2.95;;;0.90;;
76786;SDS011;65739;51.482;5.702;2023-06-26T11:34:16;2.28;;;0.70;;
76786;SDS011;65739;51.482;5.702;2023-06-26T11:37:02;3.80;;;0.70;;
76786;SDS011;65739;51.482;5.702;2023-06-26T11:39:51;4.07;;;1.00;;
76786;SDS011;65739;51.482;5.702;2023-06-26T11:42:19;2.40;;;0.80;;
76786;SDS011;65739;51.482;5.702;2023-06-26T11:45:07;3.58;;;1.00;;
76786;SDS011;65739;51.482;5.702;2023-06-26T11:47:32;5.03;;;0.80;;
76786;SDS011;65739;51.482;5.702;2023-06-26T11:50:14;3.88;;;1.08;;
76786;SDS011;65739;51.482;5.702;2023-06-26T11:52:41;1.95;;;0.90;;
76786;SDS011;65739;51.482;5.702;2023-06-26T11:55:17;1.98;;;0.90;;
76786;SDS011;65739;51.482;5.702;2023-06-26T11:57:58;2.95;;;0.93;;
76786;SDS011;65739;51.482;5.702;2023-06-26T12:00:29;1.55;;;0.60;;
76786;SDS011;65739;51.482;5.702;2023-06-26T12:06:57;1.13;;;0.68;;
76786;SDS011;65739;51.482;5.702;2023-06-26T12:09:46;4.32;;;0.82;;
76786;SDS011;65739;51.482;5.702;2023-06-26T12:12:20;2.17;;;1.02;;
76786;SDS011;65739;51.482;5.702;2023-06-26T12:14:57;6.35;;;0.98;;
76786;SDS011;65739;51.482;5.702;2023-06-26T12:17:30;5.40;;;0.80;;
76786;SDS011;65739;51.482;5.702;2023-06-26T12:20:18;1.55;;;0.88;;
76786;SDS011;65739;51.482;5.702;2023-06-26T12:23:13;2.40;;;0.85;;
76786;SDS011;65739;51.482;5.702;2023-06-26T12:25:39;2.28;;;0.80;;
76786;SDS011;65739;51.482;5.702;2023-06-26T12:28:14;8.55;;;1.17;;
76786;SDS011;65739;51.482;5.702;2023-06-26T12:36:23;3.42;;;0.77;;
76786;SDS011;65739;51.482;5.702;2023-06-26T12:39:08;1.73;;;1.10;;
76786;SDS011;65739;51.482;5.702;2023-06-26T12:41:54;2.67;;;0.90;;
76786;SDS011;65739;51.482;5.702;2023-06-26T12:44:32;3.63;;;0.80;;
76786;SDS011;65739;51.482;5.702;2023-06-26T12:47:02;1.75;;;1.00;;
76786;SDS011;65739;51.482;5.702;2023-06-26T12:49:41;4.85;;;1.08;;
76786;SDS011;65739;51.482;5.702;2023-06-26T12:52:13;2.45;;;0.90;;
76786;SDS011;65739;51.482;5.702;2023-06-26T12:54:51;3.45;;;0.70;;
76786;SDS011;65739;51.482;5.702;2023-06-26T12:57:23;3.50;;;1.05;;
76786;SDS011;65739;51.482;5.702;2023-06-26T12:59:59;4.30;;;0.80;;
76786;SDS011;65739;51.482;5.702;2023-06-26T13:02:32;1.35;;;0.88;;
76786;SDS011;65739;51.482;5.702;2023-06-26T13:04:57;3.20;;;0.80;;
76786;SDS011;65739;51.482;5.702;2023-06-26T13:07:26;8.27;;;1.20;;
76786;SDS011;65739;51.482;5.702;2023-06-26T13:09:53;6.63;;;1.17;;
76786;SDS011;65739;51.482;5.702;2023-06-26T13:12:24;1.15;;;0.70;;
76786;SDS011;65739;51.482;5.702;2023-06-26T15:18:08;5.25;;;0.80;;
76786;SDS011;65739;51.482;5.702;2023-06-26T15:20:34;3.22;;;0.80;;
76786;SDS011;65739;51.482;5.702;2023-06-26T15:23:02;3.45;;;0.90;;
76786;SDS011;65739;51.482;5.702;2023-06-26T15:25:30;1.52;;;0.77;;
76786;SDS011;65739;51.482;5.702;2023-06-26T15:27:56;1.38;;;0.68;;
76786;SDS011;65739;51.482;5.702;2023-06-26T15:30:22;2.35;;;0.88;;
76786;SDS011;65739;51.482;5.702;2023-06-26T15:32:50;1.80;;;0.80;;
76786;SDS011;65739;51.482;5.702;2023-06-26T15:35:21;2.95;;;0.70;;
76786;SDS011;65739;51.482;5.702;2023-06-26T15:37:46;1.83;;;0.90;;
76786;SDS011;65739;51.482;5.702;2023-06-26T15:40:14;2.90;;;0.70;;
76786;SDS011;65739;51.482;5.702;2023-06-26T15:42:46;3.03;;;0.77;;
76786;SDS011;65739;51.482;5.702;2023-06-26T15:45:16;2.42;;;0.65;;
76786;SDS011;65739;51.482;5.702;2023-06-26T15:47:47;2.60;;;0.85;;
76786;SDS011;65739;51.482;5.702;2023-06-26T15:50:13;1.25;;;0.70;;
76786;SDS011;65739;51.482;5.702;2023-06-26T15:52:39;2.50;;;0.88;;
76786;SDS011;65739;51.482;5.702;2023-06-26T15:55:05;2.67;;;0.50;;
76786;SDS011;65739;51.482;5.702;2023-06-26T15:57:31;4.40;;;0.82;;
76786;SDS011;65739;51.482;5.702;2023-06-26T15:59:57;2.30;;;0.88;;
76786;SDS011;65739;51.482;5.702;2023-06-26T16:02:23;3.08;;;1.10;;
76786;SDS011;65739;51.482;5.702;2023-06-26T16:04:49;2.80;;;0.80;;
76786;SDS011;65739;51.482;5.702;2023-06-26T16:07:15;3.60;;;0.75;;
76786;SDS011;65739;51.482;5.702;2023-06-26T16:09:40;3.85;;;0.80;;
76786;SDS011;65739;51.482;5.702;2023-06-26T16:14:49;1.83;;;0.80;;
76786;SDS011;65739;51.482;5.702;2023-06-26T16:17:20;1.00;;;0.60;;
76786;SDS011;65739;51.482;5.702;2023-06-26T16:19:46;2.03;;;0.70;;
76786;SDS011;65739;51.482;5.702;2023-06-26T16:22:11;1.23;;;0.60;;
76786;SDS011;65739;51.482;5.702;2023-06-26T16:24:39;2.72;;;0.68;;
76786;SDS011;65739;51.482;5.702;2023-06-26T16:27:07;4.75;;;0.95;;
76786;SDS011;65739;51.482;5.702;2023-06-26T16:29:35;1.55;;;0.90;;
76786;SDS011;65739;51.482;5.702;2023-06-26T16:32:02;4.10;;;1.10;;
76786;SDS011;65739;51.482;5.702;2023-06-26T16:34:28;2.67;;;0.85;;
76786;SDS011;65739;51.482;5.702;2023-06-26T16:36:54;2.50;;;0.95;;
76786;SDS011;65739;51.482;5.702;2023-06-26T16:39:19;6.07;;;0.77;;
76786;SDS011;65739;51.482;5.702;2023-06-26T16:41:46;3.15;;;1.17;;
76786;SDS011;65739;51.482;5.702;2023-06-26T16:44:20;1.52;;;0.70;;
76786;SDS011;65739;51.482;5.702;2023-06-26T16:46:46;4.25;;;0.98;;
76786;SDS011;65739;51.482;5.702;2023-06-26T16:49:12;2.35;;;1.05;;
76786;SDS011;65739;51.482;5.702;2023-06-26T16:51:38;3.53;;;0.75;;
76786;SDS011;65739;51.482;5.702;2023-06-26T16:54:07;2.53;;;0.80;;
76786;SDS011;65739;51.482;5.702;2023-06-26T16:56:35;3.03;;;0.75;;
76786;SDS011;65739;51.482;5.702;2023-06-26T16:59:12;1.63;;;0.68;;
76786;SDS011;65739;51.482;5.702;2023-06-26T17:01:42;3.03;;;0.80;;
76786;SDS011;65739;51.482;5.702;2023-06-26T17:04:08;2.85;;;0.80;;
76786;SDS011;65739;51.482;5.702;2023-06-26T17:06:37;2.55;;;0.85;;
76786;SDS011;65739;51.482;5.702;2023-06-26T17:09:02;2.85;;;1.00;;
76786;SDS011;65739;51.482;5.702;2023-06-26T17:11:29;2.95;;;0.88;;
76786;SDS011;65739;51.482;5.702;2023-06-26T17:13:54;1.50;;;0.75;;
76786;SDS011;65739;51.482;5.702;2023-06-26T17:16:20;1.90;;;0.93;;
76786;SDS011;65739;51.482;5.702;2023-06-26T17:18:45;2.20;;;0.88;;
76786;SDS011;65739;51.482;5.702;2023-06-26T17:21:11;2.72;;;1.17;;
76786;SDS011;65739;51.482;5.702;2023-06-26T17:23:38;2.22;;;0.60;;
76786;SDS011;65739;51.482;5.702;2023-06-26T17:26:05;3.28;;;0.70;;
76786;SDS011;65739;51.482;5.702;2023-06-26T17:28:30;0.82;;;0.52;;
76786;SDS011;65739;51.482;5.702;2023-06-26T17:30:56;0.90;;;0.68;;
76786;SDS011;65739;51.482;5.702;2023-06-26T17:33:22;1.90;;;0.70;;
76786;SDS011;65739;51.482;5.702;2023-06-26T17:35:47;2.75;;;0.75;;
76786;SDS011;65739;51.482;5.702;2023-06-26T17:38:13;2.33;;;1.10;;
76786;SDS011;65739;51.482;5.702;2023-06-26T17:40:40;2.83;;;0.80;;
76786;SDS011;65739;51.482;5.702;2023-06-26T17:43:06;2.47;;;0.90;;
76786;SDS011;65739;51.482;5.702;2023-06-26T17:45:31;2.47;;;0.82;;
76786;SDS011;65739;51.482;5.702;2023-06-26T17:47:58;1.13;;;0.80;;
76786;SDS011;65739;51.482;5.702;2023-06-26T17:50:24;1.33;;;0.80;;
76786;SDS011;65739;51.482;5.702;2023-06-26T17:52:54;3.83;;;1.02;;
76786;SDS011;65739;51.482;5.702;2023-06-26T17:55:20;0.75;;;0.60;;
76786;SDS011;65739;51.482;5.702;2023-06-26T17:57:46;2.55;;;0.70;;
76786;SDS011;65739;51.482;5.702;2023-06-26T18:00:12;1.17;;;0.70;;
76786;SDS011;65739;51.482;5.702;2023-06-26T18:02:40;1.73;;;0.70;;
76786;SDS011;65739;51.482;5.702;2023-06-26T18:05:06;1.55;;;1.00;;
76786;SDS011;65739;51.482;5.702;2023-06-26T18:07:32;1.63;;;0.80;;
76786;SDS011;65739;51.482;5.702;2023-06-26T18:09:58;2.95;;;1.00;;
76786;SDS011;65739;51.482;5.702;2023-06-26T18:12:23;2.40;;;0.93;;
76786;SDS011;65739;51.482;5.702;2023-06-26T18:14:49;2.75;;;0.65;;
76786;SDS011;65739;51.482;5.702;2023-06-26T18:17:15;2.20;;;0.80;;
76786;SDS011;65739;51.482;5.702;2023-06-26T18:19:40;2.50;;;0.70;;
76786;SDS011;65739;51.482;5.702;2023-06-26T18:22:06;1.85;;;0.70;;
76786;SDS011;65739;51.482;5.702;2023-06-26T18:24:32;1.13;;;0.60;;
76786;SDS011;65739;51.482;5.702;2023-06-26T18:26:57;2.30;;;0.90;;
76786;SDS011;65739;51.482;5.702;2023-06-26T18:29:23;2.50;;;0.60;;
76786;SDS011;65739;51.482;5.702;2023-06-26T18:31:49;1.33;;;0.95;;
76786;SDS011;65739;51.482;5.702;2023-06-26T18:34:15;0.57;;;0.57;;
76786;SDS011;65739;51.482;5.702;2023-06-26T18:36:40;1.30;;;0.63;;
76786;SDS011;65739;51.482;5.702;2023-06-26T18:39:06;0.60;;;0.60;;
76786;SDS011;65739;51.482;5.702;2023-06-26T18:41:32;3.83;;;1.15;;
76786;SDS011;65739;51.482;5.702;2023-06-26T18:43:58;1.20;;;0.90;;
76786;SDS011;65739;51.482;5.702;2023-06-26T18:46:24;1.13;;;0.70;;
76786;SDS011;65739;51.482;5.702;2023-06-26T18:48:59;3.92;;;0.90;;
76786;SDS011;65739;51.482;5.702;2023-06-26T18:51:26;2.63;;;0.90;;
76786;SDS011;65739;51.482;5.702;2023-06-26T18:53:51;4.25;;;1.15;;
76786;SDS011;65739;51.482;5.702;2023-06-26T18:56:17;2.85;;;1.10;;
76786;SDS011;65739;51.482;5.702;2023-06-26T18:58:43;4.70;;;1.10;;
76786;SDS011;65739;51.482;5.702;2023-06-26T19:01:08;2.47;;;0.95;;
76786;SDS011;65739;51.482;5.702;2023-06-26T19:03:34;1.75;;;1.15;;
76786;SDS011;65739;51.482;5.702;2023-06-26T19:05:59;2.70;;;1.00;;
76786;SDS011;65739;51.482;5.702;2023-06-26T19:08:25;4.53;;;1.23;;
76786;SDS011;65739;51.482;5.702;2023-06-26T19:10:51;6.45;;;1.10;;
76786;SDS011;65739;51.482;5.702;2023-06-26T19:13:16;2.20;;;1.02;;
76786;SDS011;65739;51.482;5.702;2023-06-26T19:15:42;3.30;;;0.88;;
76786;SDS011;65739;51.482;5.702;2023-06-26T19:18:08;1.98;;;1.17;;
76786;SDS011;65739;51.482;5.702;2023-06-26T19:20:33;4.00;;;1.08;;
76786;SDS011;65739;51.482;5.702;2023-06-26T19:22:59;3.30;;;1.25;;
76786;SDS011;65739;51.482;5.702;2023-06-26T19:25:24;2.50;;;0.95;;
76786;SDS011;65739;51.482;5.702;2023-06-26T19:27:50;6.15;;;1.10;;
76786;SDS011;65739;51.482;5.702;2023-06-26T19:30:15;3.65;;;1.10;;
76786;SDS011;65739;51.482;5.702;2023-06-26T19:32:41;2.67;;;1.00;;
76786;SDS011;65739;51.482;5.702;2023-06-26T19:35:07;2.58;;;0.98;;
76786;SDS011;65739;51.482;5.702;2023-06-26T19:37:33;4.25;;;0.90;;
76786;SDS011;65739;51.482;5.702;2023-06-26T19:39:58;1.75;;;1.00;;
76786;SDS011;65739;51.482;5.702;2023-06-26T19:42:23;3.60;;;1.25;;
76786;SDS011;65739;51.482;5.702;2023-06-26T19:44:49;4.45;;;1.25;;
76786;SDS011;65739;51.482;5.702;2023-06-26T19:47:16;2.13;;;0.98;;
76786;SDS011;65739;51.482;5.702;2023-06-26T19:49:41;2.97;;;1.17;;
76786;SDS011;65739;51.482;5.702;2023-06-26T19:52:07;4.05;;;0.82;;
76786;SDS011;65739;51.482;5.702;2023-06-26T19:54:32;2.50;;;1.20;;
76786;SDS011;65739;51.482;5.702;2023-06-26T19:56:58;3.17;;;1.30;;
76786;SDS011;65739;51.482;5.702;2023-06-26T19:59:23;3.33;;;1.20;;
76786;SDS011;65739;51.482;5.702;2023-06-26T20:01:50;1.80;;;1.17;;
76786;SDS011;65739;51.482;5.702;2023-06-26T20:04:16;2.65;;;1.10;;
76786;SDS011;65739;51.482;5.702;2023-06-26T20:06:41;4.05;;;1.42;;
76786;SDS011;65739;51.482;5.702;2023-06-26T20:09:08;4.38;;;1.10;;
76786;SDS011;65739;51.482;5.702;2023-06-26T20:11:33;3.83;;;0.98;;
76786;SDS011;65739;51.482;5.702;2023-06-26T20:13:59;2.85;;;1.02;;
76786;SDS011;65739;51.482;5.702;2023-06-26T20:16:25;4.82;;;1.02;;
76786;SDS011;65739;51.482;5.702;2023-06-26T20:18:51;3.28;;;1.27;;
76786;SDS011;65739;51.482;5.702;2023-06-26T20:21:16;2.67;;;1.10;;
76786;SDS011;65739;51.482;5.702;2023-06-26T20:23:42;4.18;;;1.17;;
76786;SDS011;65739;51.482;5.702;2023-06-26T20:26:08;3.20;;;1.40;;
76786;SDS011;65739;51.482;5.702;2023-06-26T20:28:33;2.55;;;1.05;;
76786;SDS011;65739;51.482;5.702;2023-06-26T20:30:59;3.88;;;1.20;;
76786;SDS011;65739;51.482;5.702;2023-06-26T20:33:25;6.00;;;1.27;;
76786;SDS011;65739;51.482;5.702;2023-06-26T20:35:51;3.05;;;1.25;;
76786;SDS011;65739;51.482;5.702;2023-06-26T20:38:16;1.75;;;1.20;;
76786;SDS011;65739;51.482;5.702;2023-06-26T20:40:42;1.83;;;1.30;;
76786;SDS011;65739;51.482;5.702;2023-06-26T20:43:08;4.35;;;1.33;;
76786;SDS011;65739;51.482;5.702;2023-06-26T20:45:35;2.20;;;1.30;;
76786;SDS011;65739;51.482;5.702;2023-06-26T20:48:01;2.17;;;1.10;;
76786;SDS011;65739;51.482;5.702;2023-06-26T20:50:27;2.65;;;1.20;;
76786;SDS011;65739;51.482;5.702;2023-06-26T20:52:53;2.20;;;1.20;;
76786;SDS011;65739;51.482;5.702;2023-06-26T20:55:20;2.88;;;1.45;;
76786;SDS011;65739;51.482;5.702;2023-06-26T20:57:46;4.60;;;1.17;;
76786;SDS011;65739;51.482;5.702;2023-06-26T21:00:11;4.30;;;1.40;;
76786;SDS011;65739;51.482;5.702;2023-06-26T21:02:37;3.63;;;1.27;;
76786;SDS011;65739;51.482;5.702;2023-06-26T21:05:03;4.45;;;1.35;;
76786;SDS011;65739;51.482;5.702;2023-06-26T21:07:29;5.45;;;1.50;;